Time;durP1;ratioP1;P1;durP2;ratioP2;P2;SDS_P1;SDS_P2;PMS_P1;PMS_P2;Temp;Humidity;BMP_temperature;BMP_pressure;BME280_temperature;BME280_humidity;BME280_pressure;Samples;Min_cycle;Max_cycle;Signal;HPM_P1;HPM_P2
2022/05/27 00:01:29;;;;;;;4.82;1.40;;;16.90;99.90;;;;;;5033325;28;20033;-65
2022/05/27 00:03:58;;;;;;;3.22;1.38;;;17.00;99.90;;;;;;5033384;28;20017;-65
2022/05/27 00:06:26;;;;;;;3.25;1.25;;;16.90;99.90;;;;;;5031991;28;20108;-66
2022/05/27 00:08:53;;;;;;;5.30;1.30;;;16.90;99.90;;;;;;5033067;28;20038;-65
2022/05/27 00:11:23;;;;;;;6.22;1.52;;;16.90;99.90;;;;;;5031989;28;20390;-66
2022/05/27 00:13:50;;;;;;;4.47;1.38;;;16.90;99.90;;;;;;5033244;28;20407;-65
2022/05/27 00:16:16;;;;;;;5.32;1.40;;;16.80;99.90;;;;;;5032930;28;20478;-65
2022/05/27 00:18:42;;;;;;;3.40;1.45;;;16.80;99.90;;;;;;5033263;28;20116;-65
2022/05/27 00:21:09;;;;;;;5.22;1.52;;;16.80;99.90;;;;;;5033117;28;20037;-65
2022/05/27 00:23:37;;;;;;;4.10;1.42;;;16.80;99.90;;;;;;5032945;28;20025;-66
2022/05/27 00:26:03;;;;;;;4.78;1.30;;;16.80;99.90;;;;;;5032879;28;20029;-65
2022/05/27 00:28:29;;;;;;;6.00;1.70;;;16.80;99.90;;;;;;5032742;28;20033;-65
2022/05/27 00:30:55;;;;;;;3.63;1.13;;;16.80;99.90;;;;;;5032809;28;20030;-65
2022/05/27 00:33:22;;;;;;;3.22;1.38;;;16.80;99.90;;;;;;5032745;28;20033;-65
2022/05/27 00:35:49;;;;;;;4.22;1.67;;;16.70;99.90;;;;;;5032791;28;20045;-65
2022/05/27 00:38:15;;;;;;;4.38;1.65;;;16.70;99.90;;;;;;5031283;28;20120;-66
2022/05/27 00:40:47;;;;;;;5.05;1.70;;;16.70;99.90;;;;;;5032553;28;20029;-65
2022/05/27 00:43:14;;;;;;;6.43;2.10;;;16.80;99.90;;;;;;5014901;28;20041;-66
2022/05/27 00:45:43;;;;;;;5.40;1.80;;;16.70;99.90;;;;;;5032498;28;20029;-66
2022/05/27 00:48:19;;;;;;;4.28;1.70;;;16.70;99.90;;;;;;5031428;28;20104;-66
2022/05/27 00:50:48;;;;;;;3.75;1.63;;;16.70;99.90;;;;;;5032574;28;20059;-66
2022/05/27 00:53:17;;;;;;;;;;;16.70;99.90;;;;;;5032844;28;20033;-66
2022/05/27 00:55:44;;;;;;;;;;;16.70;99.90;;;;;;5032967;28;19909;-66
2022/05/27 00:58:17;;;;;;;3.85;1.48;;;16.70;99.90;;;;;;5032268;28;19962;-66
2022/05/27 01:00:43;;;;;;;7.47;1.83;;;16.70;99.90;;;;;;5032251;28;20026;-65
2022/05/27 01:03:12;;;;;;;5.72;1.80;;;16.70;99.90;;;;;;5032264;28;20490;-66
2022/05/27 01:05:40;;;;;;;;;;;16.70;99.90;;;;;;5032641;28;20061;-66
2022/05/27 01:08:08;;;;;;;5.18;1.90;;;16.70;99.90;;;;;;5032012;28;20365;-66
2022/05/27 01:11:00;;;;;;;5.65;1.80;;;16.60;99.90;;;;;;5032435;28;20083;-66
2022/05/27 01:13:29;;;;;;;6.10;1.70;;;16.70;99.90;;;;;;5032094;28;20083;-65
2022/05/27 01:16:10;;;;;;;;;;;16.70;99.90;;;;;;5032401;28;20026;-66
2022/05/27 01:21:53;;;;;;;5.82;2.28;;;16.60;99.90;;;;;;5032199;28;20033;-66
2022/05/27 01:24:55;;;;;;;7.03;4.03;;;16.60;99.90;;;;;;5031935;28;20363;-65
2022/05/27 01:27:27;;;;;;;5.20;2.20;;;16.60;99.90;;;;;;5031767;28;20048;-66
2022/05/27 01:30:18;;;;;;;8.80;2.20;;;16.60;99.90;;;;;;5031451;28;20402;-65
2022/05/27 01:32:44;;;;;;;4.35;1.90;;;16.60;99.90;;;;;;5031670;28;20108;-65
2022/05/27 01:35:47;;;;;;;6.63;1.80;;;16.60;99.90;;;;;;5031802;28;20112;-65
2022/05/27 01:38:42;;;;;;;7.68;2.45;;;16.60;99.90;;;;;;5031364;28;20429;-65
2022/05/27 01:41:14;;;;;;;6.07;2.00;;;16.60;99.90;;;;;;5028383;28;20030;-65
2022/05/27 01:44:11;;;;;;;6.07;1.83;;;16.60;99.90;;;;;;5031515;28;20033;-66
2022/05/27 01:46:48;;;;;;;5.38;2.10;;;16.50;99.90;;;;;;5031302;28;20124;-66
2022/05/27 01:49:17;;;;;;;7.03;2.45;;;16.50;99.90;;;;;;5031321;28;20049;-65
2022/05/27 01:51:52;;;;;;;8.05;2.40;;;16.50;99.90;;;;;;5013502;28;20524;-66
2022/05/27 01:54:31;;;;;;;6.95;2.60;;;16.50;99.90;;;;;;5031379;28;20025;-66
2022/05/27 01:57:10;;;;;;;7.90;2.40;;;16.50;99.90;;;;;;5013325;28;20405;-66
2022/05/27 01:59:42;;;;;;;6.70;2.25;;;16.50;99.90;;;;;;5031382;28;20029;-66
2022/05/27 02:02:15;;;;;;;6.95;2.45;;;16.40;99.90;;;;;;5031224;28;20029;-66
2022/05/27 02:05:14;;;;;;;5.97;2.50;;;16.50;99.90;;;;;;5031260;28;20109;-65
2022/05/27 02:07:46;;;;;;;7.68;2.83;;;16.50;99.90;;;;;;5030826;28;20033;-65
2022/05/27 02:10:37;;;;;;;6.97;2.67;;;16.40;99.90;;;;;;5030985;28;20049;-65
2022/05/27 02:13:28;;;;;;;6.97;2.60;;;16.30;99.90;;;;;;5031250;28;20034;-66
2022/05/27 02:15:55;;;;;;;7.82;2.70;;;16.30;99.90;;;;;;5030952;28;20076;-65
2022/05/27 02:18:28;;;;;;;7.57;2.63;;;16.20;99.90;;;;;;5031049;28;20112;-65
2022/05/27 02:21:06;;;;;;;10.07;2.83;;;16.20;99.90;;;;;;5030893;28;20036;-65
2022/05/27 02:23:39;;;;;;;5.95;2.35;;;16.20;99.90;;;;;;5031010;28;20067;-65
2022/05/27 02:26:12;;;;;;;8.32;2.40;;;16.10;99.90;;;;;;5030899;28;20040;-65
2022/05/27 02:28:43;;;;;;;7.15;2.35;;;16.10;99.90;;;;;;5030894;28;20521;-65
2022/05/27 02:31:33;;;;;;;6.25;2.50;;;16.00;99.90;;;;;;5031074;28;20500;-65
2022/05/27 02:37:25;;;;;;;7.45;2.38;;;15.90;99.90;;;;;;5030760;28;20052;-65
2022/05/27 02:39:52;;;;;;;6.35;2.58;;;15.90;99.90;;;;;;5030947;28;20029;-66
2022/05/27 02:42:23;;;;;;;8.07;2.60;;;15.80;99.90;;;;;;5030864;28;20078;-66
2022/05/27 02:45:01;;;;;;;8.07;2.90;;;15.80;99.90;;;;;;5030634;28;20554;-66
2022/05/27 02:47:43;;;;;;;11.32;2.97;;;15.80;99.90;;;;;;5030554;28;20482;-66
2022/05/27 02:50:31;;;;;;;7.93;2.80;;;15.70;99.90;;;;;;5029396;28;20570;-66
2022/05/27 02:53:13;;;;;;;9.38;3.00;;;15.70;99.90;;;;;;5030538;28;20033;-66
2022/05/27 02:55:54;;;;;;;7.07;3.03;;;15.70;99.90;;;;;;5030974;28;20383;-65
2022/05/27 02:58:20;;;;;;;9.43;3.45;;;15.60;99.90;;;;;;5029400;28;20025;-66
2022/05/27 03:00:46;;;;;;;7.65;3.20;;;15.50;99.90;;;;;;5030892;28;20039;-65
2022/05/27 03:03:12;;;;;;;5.63;3.15;;;15.50;99.90;;;;;;5032667;28;20030;-65
2022/05/27 03:05:44;;;;;;;10.65;3.25;;;15.50;99.90;;;;;;5030390;28;20101;-65
2022/05/27 03:08:20;;;;;;;7.03;2.95;;;15.50;99.90;;;;;;5030551;28;20064;-66
2022/05/27 03:11:02;;;;;;;7.65;3.53;;;15.50;99.90;;;;;;5031960;28;20045;-65
2022/05/27 03:14:09;;;;;;;7.97;3.10;;;15.40;99.90;;;;;;5034248;28;20034;-65
2022/05/27 03:17:03;;;;;;;6.97;3.28;;;15.50;99.90;;;;;;5034248;28;20037;-65
2022/05/27 03:20:27;;;;;;;10.35;3.83;;;15.40;99.90;;;;;;5034651;28;20506;-65
2022/05/27 03:23:28;;;;;;;7.90;3.05;;;15.40;99.90;;;;;;4972999;28;20511;-65
2022/05/27 03:26:08;;;;;;;6.85;3.20;;;15.40;99.90;;;;;;5000714;28;20042;-65
2022/05/27 03:29:08;;;;;;;8.00;3.25;;;15.40;99.90;;;;;;5034184;28;20094;-65
2022/05/27 03:32:00;;;;;;;9.32;3.75;;;15.30;99.90;;;;;;5034141;28;20025;-65
2022/05/27 03:34:51;;;;;;;6.78;3.58;;;15.30;99.90;;;;;;5033973;28;20025;-65
2022/05/27 03:37:30;;;;;;;4.63;2.70;;;15.30;99.90;;;;;;5033261;28;20037;-66
2022/05/27 03:40:25;;;;;;;;;;;15.30;99.90;;;;;;5034386;28;20079;-65
2022/05/27 03:42:52;;;;;;;4.53;2.38;;;15.20;99.90;;;;;;5024674;28;19909;-65
2022/05/27 03:45:20;;;;;;;4.93;2.42;;;15.20;99.90;;;;;;5033679;28;20056;-66
2022/05/27 03:47:47;;;;;;;6.93;2.35;;;15.20;99.90;;;;;;5033491;28;20033;-66
2022/05/27 03:50:20;;;;;;;5.20;2.25;;;15.20;99.90;;;;;;5033502;28;20217;-66
2022/05/27 03:52:48;;;;;;;6.03;2.70;;;15.20;99.90;;;;;;5033459;28;20025;-66
2022/05/27 03:55:19;;;;;;;9.60;3.17;;;15.20;99.90;;;;;;5033568;28;20033;-65
2022/05/27 03:57:45;;;;;;;7.50;3.92;;;15.20;99.90;;;;;;5033602;28;20052;-66
2022/05/27 04:00:13;;;;;;;8.10;4.00;;;15.20;99.90;;;;;;5031954;28;20033;-65
2022/05/27 04:02:40;;;;;;;7.05;3.20;;;15.20;99.90;;;;;;5033394;28;20034;-65
2022/05/27 04:05:07;;;;;;;8.27;3.17;;;15.20;99.90;;;;;;5033291;28;20148;-65
2022/05/27 04:07:33;;;;;;;5.53;2.80;;;15.20;99.90;;;;;;5033225;28;20447;-66
2022/05/27 04:09:59;;;;;;;5.05;2.63;;;15.30;99.90;;;;;;5033172;28;20316;-65
2022/05/27 04:12:25;;;;;;;4.90;2.30;;;15.20;99.90;;;;;;5032062;28;20426;-65
2022/05/27 04:14:52;;;;;;;4.45;2.47;;;15.30;99.90;;;;;;5033210;28;20037;-65
2022/05/27 04:17:30;;;;;;;3.38;2.00;;;15.30;99.90;;;;;;5032798;28;20029;-65
2022/05/27 04:19:57;;;;;;;4.50;2.60;;;15.30;99.90;;;;;;5032937;28;20025;-66
2022/05/27 04:22:23;;;;;;;3.72;2.25;;;15.30;99.90;;;;;;5032986;28;20037;-66
2022/05/27 04:24:49;;;;;;;4.18;2.22;;;15.30;99.90;;;;;;5031892;28;20036;-66
2022/05/27 04:27:17;;;;;;;6.43;2.80;;;15.30;99.90;;;;;;5031496;28;20397;-66
2022/05/27 04:29:45;;;;;;;5.13;2.42;;;15.30;99.90;;;;;;5032768;28;20029;-66
2022/05/27 04:32:12;;;;;;;4.13;2.50;;;15.30;99.90;;;;;;5032936;28;20030;-66
2022/05/27 04:34:40;;;;;;;7.05;4.05;;;15.30;99.90;;;;;;5032872;28;20042;-66
2022/05/27 04:37:07;;;;;;;12.13;6.30;;;15.40;99.90;;;;;;5032521;28;20032;-65
2022/05/27 04:39:33;;;;;;;6.78;4.22;;;15.40;99.90;;;;;;5031213;28;20494;-65
2022/05/27 04:41:59;;;;;;;6.93;2.80;;;15.40;99.90;;;;;;5032897;28;20029;-65
2022/05/27 04:44:26;;;;;;;5.43;2.85;;;15.40;99.90;;;;;;5032624;28;20371;-65
2022/05/27 04:46:52;;;;;;;6.18;2.90;;;15.30;99.90;;;;;;5032246;28;20029;-66
2022/05/27 04:52:21;;;;;;;4.25;2.53;;;15.40;99.90;;;;;;5034897;22;20077;-67
2022/05/27 04:54:48;;;;;;;5.38;2.55;;;15.40;99.90;;;;;;5032768;28;20449;-66
2022/05/27 04:57:18;;;;;;;5.20;2.42;;;15.30;99.90;;;;;;5032246;28;20041;-66
2022/05/27 04:59:46;;;;;;;5.78;2.60;;;15.30;99.90;;;;;;5032292;28;20018;-67
2022/05/27 05:02:13;;;;;;;5.28;2.30;;;15.30;99.90;;;;;;5032570;28;20033;-66
2022/05/27 05:04:39;;;;;;;3.95;2.10;;;15.30;99.90;;;;;;5032387;28;20083;-67
2022/05/27 05:07:08;;;;;;;6.90;2.38;;;15.30;99.90;;;;;;5032222;28;20021;-66
2022/05/27 05:09:39;;;;;;;5.90;3.58;;;15.30;99.90;;;;;;5032251;28;20025;-67
2022/05/27 05:12:07;;;;;;;4.93;2.63;;;15.30;99.90;;;;;;5032279;28;20041;-67
2022/05/27 05:14:33;;;;;;;5.38;2.22;;;15.30;99.90;;;;;;5032299;28;20032;-67
2022/05/27 05:16:59;;;;;;;5.68;2.38;;;15.30;99.90;;;;;;5031683;28;20034;-67
2022/05/27 05:19:25;;;;;;;6.07;2.90;;;15.30;99.90;;;;;;5032026;28;20032;-67
2022/05/27 05:21:52;;;;;;;5.07;2.80;;;15.30;99.90;;;;;;5032286;28;20029;-66
2022/05/27 05:24:18;;;;;;;5.85;2.80;;;15.30;99.90;;;;;;5031986;28;20489;-66
2022/05/27 05:26:44;;;;;;;5.10;2.35;;;15.30;99.90;;;;;;5031771;28;20025;-66
2022/05/27 05:29:10;;;;;;;4.78;2.25;;;15.30;99.90;;;;;;5031837;28;20033;-66
2022/05/27 05:31:36;;;;;;;5.35;2.63;;;15.30;99.90;;;;;;5031796;28;20040;-66
2022/05/27 05:34:02;;;;;;;7.57;2.50;;;15.30;99.90;;;;;;5031383;28;20044;-67
2022/05/27 05:36:29;;;;;;;4.25;2.10;;;15.30;99.90;;;;;;5013873;28;20033;-66
2022/05/27 05:38:56;;;;;;;3.65;2.03;;;15.30;99.90;;;;;;5031586;28;20029;-67
2022/05/27 05:41:30;;;;;;;7.28;2.47;;;15.30;99.90;;;;;;5031807;28;20032;-66
2022/05/27 05:43:57;;;;;;;5.00;2.15;;;15.30;99.90;;;;;;5030519;28;20025;-67
2022/05/27 05:46:25;;;;;;;4.95;2.40;;;15.30;99.90;;;;;;5031440;28;20025;-67
2022/05/27 05:48:51;;;;;;;4.60;2.05;;;15.30;99.90;;;;;;5031676;28;20052;-67
2022/05/27 05:51:17;;;;;;;5.03;2.17;;;15.30;99.90;;;;;;5031462;28;20083;-67
2022/05/27 05:53:43;;;;;;;6.22;2.40;;;15.40;99.90;;;;;;5031413;28;20033;-67
2022/05/27 05:56:10;;;;;;;4.22;2.22;;;15.40;99.90;;;;;;5031186;28;20534;-68
2022/05/27 05:58:36;;;;;;;4.13;2.13;;;15.40;99.90;;;;;;5031054;28;20033;-68
2022/05/27 06:01:03;;;;;;;5.43;2.40;;;15.40;99.90;;;;;;5031170;28;20021;-67
2022/05/27 06:03:29;;;;;;;5.18;2.30;;;15.40;99.90;;;;;;5031510;28;20060;-67
2022/05/27 06:05:54;;;;;;;5.82;3.03;;;15.40;99.90;;;;;;5031115;28;20210;-68
2022/05/27 06:08:21;;;;;;;5.93;2.47;;;15.50;99.90;;;;;;5031131;28;20034;-67
2022/05/27 06:10:48;;;;;;;8.27;3.45;;;15.50;99.90;;;;;;5030869;28;20033;-67
2022/05/27 06:13:14;;;;;;;6.82;2.70;;;15.50;99.90;;;;;;5031036;28;20036;-67
2022/05/27 06:15:41;;;;;;;5.88;2.13;;;15.50;99.90;;;;;;5030923;28;20045;-67
2022/05/27 06:18:07;;;;;;;5.05;1.95;;;15.50;99.90;;;;;;5031030;28;20079;-67
2022/05/27 06:20:35;;;;;;;8.65;2.85;;;15.50;99.90;;;;;;5029584;28;20503;-67
2022/05/27 06:23:05;;;;;;;7.57;2.47;;;15.60;99.90;;;;;;5029775;28;20585;-68
2022/05/27 06:25:31;;;;;;;8.73;3.90;;;15.60;99.90;;;;;;5031098;28;20064;-67
2022/05/27 06:36:16;;;;;;;10.32;2.97;;;15.70;99.90;;;;;;5030805;28;20028;-67
2022/05/27 06:38:42;;;;;;;7.50;3.00;;;15.60;99.90;;;;;;5030845;28;20041;-66
2022/05/27 06:41:08;;;;;;;9.15;2.90;;;15.60;99.90;;;;;;5030911;28;20120;-67
2022/05/27 06:43:35;;;;;;;9.88;3.10;;;15.70;99.90;;;;;;5030999;28;20080;-67
2022/05/27 06:46:01;;;;;;;5.40;2.50;;;15.70;99.90;;;;;;5032863;28;20056;-67
2022/05/27 06:48:28;;;;;;;8.68;2.92;;;15.70;99.90;;;;;;5034969;28;20057;-66
2022/05/27 06:50:54;;;;;;;6.47;2.40;;;15.80;99.90;;;;;;5033590;28;20456;-66
2022/05/27 06:53:20;;;;;;;10.18;3.08;;;15.90;99.90;;;;;;5034748;28;20107;-67
2022/05/27 06:55:50;;;;;;;12.10;3.60;;;15.90;99.90;;;;;;5034815;28;20037;-66
2022/05/27 06:58:16;;;;;;;8.57;3.33;;;15.90;99.90;;;;;;5034656;28;20474;-66
2022/05/27 07:00:42;;;;;;;4.57;2.13;;;15.90;99.90;;;;;;5034569;28;20034;-66
2022/05/27 07:03:09;;;;;;;9.73;2.95;;;16.00;99.90;;;;;;5034644;28;20406;-66
2022/05/27 07:05:35;;;;;;;7.28;3.28;;;16.00;99.90;;;;;;5034745;28;20025;-68
2022/05/27 07:08:05;;;;;;;8.52;2.97;;;16.00;99.90;;;;;;5034395;28;20042;-68
2022/05/27 07:10:31;;;;;;;8.43;3.00;;;16.10;99.90;;;;;;5034367;28;20026;-67
2022/05/27 07:12:59;;;;;;;6.95;2.55;;;16.00;99.90;;;;;;5034509;28;20390;-67
2022/05/27 07:15:31;;;;;;;6.07;2.43;;;16.00;99.90;;;;;;5034458;28;20501;-67
2022/05/27 07:17:57;;;;;;;13.68;3.75;;;16.00;99.90;;;;;;5034035;28;20548;-67
2022/05/27 07:20:24;;;;;;;6.88;3.15;;;16.00;99.90;;;;;;5034369;28;20034;-66
2022/05/27 07:22:50;;;;;;;12.95;3.08;;;16.10;99.90;;;;;;5034361;28;20033;-67
2022/05/27 07:25:16;;;;;;;6.38;3.15;;;16.10;99.90;;;;;;5034309;28;20183;-66
2022/05/27 07:27:44;;;;;;;10.27;3.28;;;16.10;99.90;;;;;;5034013;28;20030;-67
2022/05/27 07:30:15;;;;;;;8.20;3.17;;;16.20;99.90;;;;;;5033937;28;20645;-67
2022/05/27 07:32:41;;;;;;;7.80;3.08;;;16.20;99.90;;;;;;5034306;28;20648;-66
2022/05/27 07:35:09;;;;;;;7.57;3.45;;;16.30;99.90;;;;;;5034286;28;20390;-67
2022/05/27 07:37:35;;;;;;;11.63;5.25;;;16.30;99.90;;;;;;5033645;28;20402;-66
2022/05/27 07:40:02;;;;;;;16.73;5.63;;;16.30;99.90;;;;;;5033644;28;20397;-67
2022/05/27 07:42:28;;;;;;;10.07;5.15;;;16.30;99.90;;;;;;5032701;28;20030;-67
2022/05/27 07:44:54;;;;;;;11.38;4.68;;;16.40;99.90;;;;;;5032438;28;20052;-67
2022/05/27 07:47:20;;;;;;;13.95;5.45;;;16.30;99.90;;;;;;5033767;28;20490;-67
2022/05/27 07:49:46;;;;;;;9.93;4.80;;;16.40;99.90;;;;;;5033622;28;20029;-68
2022/05/27 07:52:12;;;;;;;10.10;4.80;;;16.40;99.90;;;;;;5034045;28;20108;-67
2022/05/27 07:54:38;;;;;;;8.18;3.95;;;16.40;99.90;;;;;;5033794;28;20099;-67
2022/05/27 07:57:23;;;;;;;10.40;4.18;;;16.40;99.90;;;;;;5032947;28;20498;-66
2022/05/27 08:00:00;;;;;;;11.75;4.57;;;16.40;99.90;;;;;;5033333;28;20030;-66
2022/05/27 08:02:26;;;;;;;10.38;4.38;;;16.50;99.90;;;;;;5033557;28;20486;-67
2022/05/27 08:04:53;;;;;;;9.57;4.30;;;16.50;99.90;;;;;;5033455;28;20033;-68
2022/05/27 08:07:20;;;;;;;8.48;4.30;;;16.50;99.90;;;;;;5033552;28;20033;-67
2022/05/27 08:09:47;;;;;;;10.82;4.25;;;16.50;99.90;;;;;;5033320;28;20542;-66
2022/05/27 08:12:13;;;;;;;16.13;4.88;;;16.60;99.90;;;;;;5033844;28;20462;-67
2022/05/27 08:14:39;;;;;;;12.15;4.80;;;16.60;99.90;;;;;;5033440;28;20038;-67
2022/05/27 08:17:05;;;;;;;11.05;4.65;;;16.70;99.90;;;;;;5033043;28;20033;-67
2022/05/27 08:19:31;;;;;;;9.80;3.83;;;16.70;99.90;;;;;;5033217;28;20033;-66
2022/05/27 08:21:57;;;;;;;7.00;2.95;;;16.70;99.90;;;;;;5033235;28;20108;-67
2022/05/27 08:24:23;;;;;;;9.85;3.90;;;16.80;99.90;;;;;;5033013;28;20432;-66
2022/05/27 08:26:49;;;;;;;8.98;3.10;;;16.80;99.90;;;;;;5031625;28;20167;-67
2022/05/27 08:29:15;;;;;;;9.18;3.13;;;16.80;99.90;;;;;;5033167;28;20037;-67
2022/05/27 08:31:41;;;;;;;8.88;3.08;;;16.80;99.90;;;;;;5031688;28;20076;-67
2022/05/27 08:39:46;;;;;;;11.50;3.50;;;16.90;99.90;;;;;;5031479;28;20120;-66
2022/05/27 08:42:39;;;;;;;12.15;3.65;;;17.00;99.90;;;;;;5032776;28;20037;-67
2022/05/27 08:45:21;;;;;;;12.27;4.45;;;17.00;99.90;;;;;;5031605;28;20061;-67
2022/05/27 08:47:59;;;;;;;10.60;3.33;;;17.00;99.90;;;;;;5031520;28;20474;-67
2022/05/27 08:50:49;;;;;;;12.63;3.13;;;17.00;99.90;;;;;;5032903;28;20030;-67
2022/05/27 08:53:37;;;;;;;9.73;3.05;;;17.00;99.90;;;;;;5032399;28;20100;-67
2022/05/27 09:01:51;;;;;;;10.55;2.45;;;16.90;99.90;;;;;;5032436;28;20041;-66
2022/05/27 09:04:48;;;;;;;11.65;3.17;;;16.90;99.90;;;;;;5032433;28;20386;-67
2022/05/27 09:07:42;;;;;;;9.32;3.70;;;17.00;99.90;;;;;;4979181;28;20536;-66
2022/05/27 09:10:14;;;;;;;11.45;3.03;;;17.00;99.90;;;;;;5030607;28;20036;-66
2022/05/27 09:13:06;;;;;;;10.50;3.35;;;17.00;99.90;;;;;;5032209;28;20104;-67
2022/05/27 09:15:36;;;;;;;10.13;2.97;;;17.10;99.50;;;;;;5031735;28;20088;-67
2022/05/27 09:18:13;;;;;;;11.02;2.45;;;17.10;99.50;;;;;;5031974;28;20116;-67
2022/05/27 09:21:09;;;;;;;9.82;2.90;;;17.20;99.80;;;;;;5032007;28;20038;-67
2022/05/27 09:24:20;;;;;;;9.73;2.30;;;17.40;99.30;;;;;;5032222;28;20034;-66
2022/05/27 09:26:46;;;;;;;10.63;2.45;;;17.40;98.40;;;;;;5010588;28;20406;-67
2022/05/27 09:29:11;;;;;;;9.20;2.72;;;17.40;97.90;;;;;;5031757;28;20500;-66
2022/05/27 09:31:51;;;;;;;7.97;2.80;;;17.40;97.90;;;;;;5030775;28;20408;-66
2022/05/27 09:34:28;;;;;;;10.43;2.70;;;17.40;97.50;;;;;;5032453;28;20068;-67
2022/05/27 09:36:58;;;;;;;13.05;3.63;;;17.40;97.30;;;;;;5031735;28;20030;-66
2022/05/27 09:39:24;;;;;;;17.30;5.45;;;17.40;97.80;;;;;;5030189;28;20116;-66
2022/05/27 09:42:27;;;;;;;12.63;3.63;;;17.40;97.80;;;;;;5030378;28;20113;-67
2022/05/27 09:44:56;;;;;;;11.10;2.50;;;17.40;97.80;;;;;;5031700;28;20030;-66
2022/05/27 09:47:27;;;;;;;7.97;2.80;;;17.40;97.60;;;;;;5031417;28;20398;-66
2022/05/27 09:49:58;;;;;;;7.13;2.30;;;17.30;98.00;;;;;;5031317;28;20482;-66
2022/05/27 09:52:27;;;;;;;8.82;2.45;;;17.30;97.50;;;;;;5031475;28;20061;-66
2022/05/27 09:54:59;;;;;;;7.32;2.00;;;17.20;97.40;;;;;;5031453;28;20029;-67
2022/05/27 09:57:32;;;;;;;9.85;2.92;;;17.20;97.70;;;;;;5031038;28;20029;-66
2022/05/27 10:00:02;;;;;;;8.55;2.10;;;17.30;97.90;;;;;;5031229;28;20124;-66
2022/05/27 10:02:32;;;;;;;10.23;2.50;;;17.40;97.20;;;;;;5030173;28;20044;-67
2022/05/27 10:05:23;;;;;;;10.65;2.95;;;17.40;96.80;;;;;;5031262;28;20083;-67
2022/05/27 10:07:59;;;;;;;9.35;2.53;;;17.40;96.90;;;;;;5031169;28;20513;-66
2022/05/27 10:10:37;;;;;;;7.60;2.30;;;17.40;96.60;;;;;;5031160;28;20037;-67
2022/05/27 10:13:34;;;;;;;11.23;2.80;;;17.40;96.30;;;;;;5031164;28;20037;-67
2022/05/27 10:16:12;;;;;;;12.63;2.75;;;17.60;95.80;;;;;;5029894;28;20029;-66
2022/05/27 10:18:41;;;;;;;11.77;2.37;;;17.60;96.20;;;;;;5030904;28;20037;-67
2022/05/27 10:21:18;;;;;;;10.18;2.30;;;17.70;96.40;;;;;;5029773;28;20053;-67
2022/05/27 10:23:48;;;;;;;11.00;2.53;;;17.70;96.20;;;;;;5031020;28;20044;-67
2022/05/27 10:26:26;;;;;;;9.07;2.42;;;17.80;95.60;;;;;;5030838;28;20025;-66
2022/05/27 10:28:57;;;;;;;10.57;3.17;;;17.80;95.80;;;;;;5031013;28;20494;-66
2022/05/27 10:31:24;;;;;;;12.15;3.50;;;17.80;95.90;;;;;;5030973;28;20374;-66
2022/05/27 10:33:50;;;;;;;9.45;3.28;;;17.90;95.00;;;;;;5031225;28;20095;-67
2022/05/27 10:36:41;;;;;;;13.40;2.60;;;17.90;94.90;;;;;;5030750;28;20556;-67
2022/05/27 10:39:13;;;;;;;11.70;2.90;;;17.90;94.50;;;;;;5030489;28;20030;-67
2022/05/27 10:41:48;;;;;;;9.77;2.63;;;18.00;94.70;;;;;;5029582;28;20474;-67
2022/05/27 10:44:42;;;;;;;11.35;2.63;;;18.00;95.20;;;;;;5029588;28;20033;-67
2022/05/27 10:47:24;;;;;;;10.68;2.70;;;18.20;94.30;;;;;;5030688;28;20032;-67
2022/05/27 10:49:57;;;;;;;8.98;2.80;;;18.30;94.40;;;;;;5030616;28;20163;-67
2022/05/27 10:52:57;;;;;;;10.23;2.47;;;18.30;94.10;;;;;;5053007;22;20958;-82
2022/05/27 10:55:47;;;;;;;10.00;3.00;;;18.30;93.90;;;;;;5030859;28;20030;-83
2022/05/27 11:04:15;;;;;;;9.35;2.35;;;18.20;93.60;;;;;;5030779;28;20029;-82
2022/05/27 11:07:05;;;;;;;11.52;2.53;;;18.30;92.30;;;;;;5030386;28;20025;-82
2022/05/27 11:09:53;;;;;;;13.32;2.45;;;18.30;91.80;;;;;;5030465;28;20033;-82
2022/05/27 11:16:00;;;;;;;13.07;3.10;;;18.50;92.30;;;;;;5030522;28;20083;-82
2022/05/27 11:18:54;;;;;;;10.77;3.13;;;18.40;92.40;;;;;;5017619;28;20041;-82
2022/05/27 11:21:58;;;;;;;9.07;3.17;;;18.40;92.60;;;;;;5030335;28;20034;-82
2022/05/27 11:24:48;;;;;;;11.60;3.08;;;18.40;92.70;;;;;;5029799;28;20094;-82
2022/05/27 11:27:20;;;;;;;12.15;2.47;;;18.30;92.60;;;;;;5030241;28;20029;-82
2022/05/27 11:30:17;;;;;;;8.90;2.95;;;18.30;92.30;;;;;;5030189;28;20044;-82
2022/05/27 11:32:51;;;;;;;11.73;2.63;;;18.40;92.10;;;;;;5033229;28;20451;-82
2022/05/27 11:35:38;;;;;;;12.18;2.90;;;18.40;90.90;;;;;;5034164;28;20036;-82
2022/05/27 11:38:24;;;;;;;9.65;3.13;;;18.50;91.10;;;;;;5033871;28;20044;-82
2022/05/27 11:41:01;;;;;;;12.10;2.80;;;18.40;91.30;;;;;;5022994;28;20040;-82
2022/05/27 11:43:47;;;;;;;8.77;2.60;;;18.50;91.20;;;;;;5033596;28;20036;-82
2022/05/27 11:46:15;;;;;;;11.05;2.60;;;18.40;91.50;;;;;;5033369;28;20039;-82
2022/05/27 11:49:11;;;;;;;6.57;2.15;;;18.50;90.80;;;;;;5033432;28;20116;-82
2022/05/27 11:52:01;;;;;;;8.68;2.58;;;18.50;90.80;;;;;;5033572;28;20035;-82
2022/05/27 11:55:01;;;;;;;10.20;2.70;;;18.70;89.60;;;;;;5033474;28;20030;-82
2022/05/27 11:57:46;;;;;;;7.47;2.47;;;18.80;85.30;;;;;;5030022;28;20048;-82
2022/05/27 12:00:18;;;;;;;9.95;2.97;;;18.80;85.80;;;;;;5033132;28;20086;-82
2022/05/27 12:02:53;;;;;;;10.90;2.85;;;18.70;85.00;;;;;;5033203;28;20045;-82
2022/05/27 12:05:26;;;;;;;14.02;2.63;;;18.80;84.40;;;;;;5033285;28;20053;-82
2022/05/27 12:08:24;;;;;;;9.50;3.33;;;18.90;84.60;;;;;;5032991;28;20555;-82
2022/05/27 12:10:59;;;;;;;11.07;2.55;;;19.00;82.40;;;;;;5032709;28;20041;-83
2022/05/27 12:13:40;;;;;;;14.27;2.35;;;19.10;82.90;;;;;;5032979;28;20033;-83
2022/05/27 12:16:12;;;;;;;8.57;2.10;;;19.10;82.60;;;;;;5032884;28;20030;-82
2022/05/27 12:18:44;;;;;;;10.57;2.10;;;19.10;83.80;;;;;;5032729;28;20029;-82
2022/05/27 12:21:16;;;;;;;7.28;1.98;;;19.00;83.90;;;;;;5032919;28;20090;-82
2022/05/27 12:23:48;;;;;;;8.45;2.80;;;19.00;83.30;;;;;;5032768;28;20045;-82
2022/05/27 12:26:16;;;;;;;8.25;2.10;;;19.10;81.90;;;;;;5032594;28;20106;-82
2022/05/27 12:28:44;;;;;;;12.05;2.85;;;19.00;82.70;;;;;;5032797;28;20381;-82
2022/05/27 12:31:11;;;;;;;7.75;2.10;;;19.10;81.20;;;;;;5031605;28;20033;-82
2022/05/27 12:33:38;;;;;;;11.50;2.95;;;19.20;82.00;;;;;;5032803;28;20094;-82
2022/05/27 12:36:17;;;;;;;9.38;2.22;;;19.40;81.00;;;;;;5032519;28;20040;-82
2022/05/27 12:38:47;;;;;;;7.40;2.15;;;19.60;79.80;;;;;;5032266;28;20088;-82
2022/05/27 12:41:17;;;;;;;7.80;2.13;;;19.70;79.00;;;;;;5032408;28;20044;-83
2022/05/27 12:44:02;;;;;;;8.02;1.83;;;19.80;76.10;;;;;;5031303;28;20037;-83
2022/05/27 12:46:32;;;;;;;7.93;2.28;;;19.90;75.20;;;;;;5032694;28;20017;-82
2022/05/27 12:49:22;;;;;;;9.30;2.40;;;20.00;73.50;;;;;;5032219;28;20032;-83
2022/05/27 12:51:48;;;;;;;10.40;2.33;;;19.90;73.80;;;;;;5032579;28;20087;-82
2022/05/27 12:54:43;;;;;;;10.45;2.50;;;19.80;75.70;;;;;;5032139;28;20034;-82
2022/05/27 13:00:55;;;;;;;12.10;2.88;;;19.30;76.50;;;;;;5031981;28;20044;-82
2022/05/27 13:03:45;;;;;;;7.22;2.70;;;19.00;76.80;;;;;;5032278;28;20437;-82
2022/05/27 13:06:26;;;;;;;10.68;3.50;;;18.90;75.80;;;;;;5032002;28;20033;-82
2022/05/27 13:08:52;;;;;;;14.10;4.60;;;18.90;76.70;;;;;;5032010;28;20033;-82
2022/05/27 13:11:27;;;;;;;14.70;3.38;;;18.90;77.60;;;;;;5031998;28;20079;-82
2022/05/27 13:14:03;;;;;;;14.23;2.90;;;19.00;75.90;;;;;;5030575;28;20398;-82
2022/05/27 13:16:51;;;;;;;10.45;2.75;;;19.00;74.90;;;;;;5032051;28;20034;-82
2022/05/27 13:19:22;;;;;;;8.93;2.72;;;19.00;76.50;;;;;;5031644;28;20497;-82
2022/05/27 13:21:51;;;;;;;12.40;3.20;;;18.80;78.30;;;;;;5031666;28;20106;-82
2022/05/27 13:24:19;;;;;;;11.60;3.00;;;18.80;79.00;;;;;;5031769;28;20478;-82
2022/05/27 13:26:51;;;;;;;8.82;2.50;;;18.80;77.00;;;;;;5031743;28;20069;-82
2022/05/27 13:29:28;;;;;;;10.07;2.28;;;18.70;76.10;;;;;;5031554;28;20037;-83
2022/05/27 13:31:59;;;;;;;11.30;2.58;;;18.70;76.00;;;;;;5031611;28;20033;-82
2022/05/27 13:34:48;;;;;;;9.10;3.10;;;18.80;76.20;;;;;;5032226;28;20381;-82
2022/05/27 13:37:36;;;;;;;12.95;2.80;;;18.90;72.80;;;;;;5031670;28;20105;-82
2022/05/27 13:40:09;;;;;;;9.45;3.03;;;19.00;74.40;;;;;;5031359;28;20474;-82
2022/05/27 13:42:41;;;;;;;9.40;2.22;;;19.10;73.50;;;;;;5031431;28;20052;-82
2022/05/27 13:45:14;;;;;;;6.47;1.70;;;19.20;71.50;;;;;;5031530;28;20033;-82
2022/05/27 13:47:55;;;;;;;6.47;2.10;;;19.20;72.10;;;;;;5031216;28;20026;-82
2022/05/27 13:50:30;;;;;;;9.27;2.50;;;19.30;71.40;;;;;;5031211;28;20059;-82
2022/05/27 13:52:56;;;;;;;7.55;1.98;;;19.40;70.90;;;;;;5031221;28;20030;-83
2022/05/27 13:55:29;;;;;;;11.10;2.65;;;19.50;71.70;;;;;;5031082;28;20527;-82
2022/05/27 13:58:02;;;;;;;11.45;3.80;;;19.40;71.40;;;;;;5030922;28;20466;-82
2022/05/27 14:00:36;;;;;;;8.60;2.25;;;19.40;72.00;;;;;;5031303;28;20120;-82
2022/05/27 14:03:03;;;;;;;8.70;1.90;;;19.30;70.50;;;;;;5031094;28;20026;-82